Time;durP1;ratioP1;P1;durP2;ratioP2;P2;SDS_P1;SDS_P2;PMS_P1;PMS_P2;Temp;Humidity;BMP_temperature;BMP_pressure;BME280_temperature;BME280_humidity;BME280_pressure;Samples;Min_cycle;Max_cycle;Signal;HPM_P1;HPM_P2
2024/02/01 00:01:49;;;;;;;0.40;0.40;;;;;;;5.06;100.00;100413.53;5045383;28;20048;-58
2024/02/01 00:04:16;;;;;;;0.40;0.40;;;;;;;5.08;100.00;100412.34;5047512;28;20059;-58
2024/02/01 00:06:45;;;;;;;0.50;0.50;;;;;;;5.10;100.00;100409.53;5045984;28;20041;-57
2024/02/01 00:09:14;;;;;;;0.40;0.40;;;;;;;5.12;100.00;100413.66;5041374;28;20387;-58
2024/02/01 00:11:41;;;;;;;0.40;0.40;;;;;;;5.09;100.00;100410.53;5026728;28;20514;-58
2024/02/01 00:14:08;;;;;;;0.43;0.43;;;;;;;5.09;100.00;100400.75;5044515;28;20387;-58
2024/02/01 00:16:35;;;;;;;0.40;0.40;;;;;;;5.23;100.00;100393.81;5042249;28;20041;-59
2024/02/01 00:19:02;;;;;;;0.30;0.30;;;;;;;5.19;100.00;100384.53;5044526;28;20508;-59
2024/02/01 00:21:29;;;;;;;0.40;0.40;;;;;;;5.17;100.00;100390.03;5043750;28;20420;-58
2024/02/01 00:23:56;;;;;;;0.40;0.40;;;;;;;5.19;100.00;100392.50;5044628;28;20678;-58
2024/02/01 00:26:25;;;;;;;0.50;0.50;;;;;;;5.19;100.00;100389.84;5045784;28;20041;-58
2024/02/01 00:28:52;;;;;;;0.40;0.40;;;;;;;5.22;100.00;100386.84;5025430;28;20584;-58
2024/02/01 00:31:19;;;;;;;0.40;0.40;;;;;;;5.28;100.00;100380.81;5044466;28;20102;-58
2024/02/01 00:33:46;;;;;;;0.40;0.40;;;;;;;5.23;100.00;100377.84;5009790;28;20098;-58
2024/02/01 00:36:13;;;;;;;0.50;0.50;;;;;;;5.29;100.00;100363.88;5043474;28;20388;-58
2024/02/01 00:38:40;;;;;;;0.40;0.40;;;;;;;5.34;100.00;100363.28;5026616;28;20138;-58
2024/02/01 00:41:07;;;;;;;0.47;0.47;;;;;;;5.35;100.00;100363.13;5041293;28;20037;-61
2024/02/01 00:43:36;;;;;;;0.40;0.40;;;;;;;5.37;100.00;100353.16;5041994;28;20041;-58
2024/02/01 00:46:03;;;;;;;0.40;0.40;;;;;;;5.38;100.00;100353.97;5014351;28;20073;-58
2024/02/01 00:48:30;;;;;;;0.30;0.30;;;;;;;5.42;100.00;100357.94;5021960;28;20579;-58
2024/02/01 00:50:57;;;;;;;0.40;0.40;;;;;;;5.44;100.00;100358.53;5022061;28;20075;-59
2024/02/01 00:53:27;;;;;;;0.50;0.50;;;;;;;5.48;100.00;100353.72;5020584;28;20601;-58
2024/02/01 00:55:54;;;;;;;0.40;0.40;;;;;;;5.50;100.00;100362.34;5007194;28;20052;-57
2024/02/01 00:58:21;;;;;;;0.38;0.38;;;;;;;5.49;100.00;100355.34;5022381;28;20466;-58
2024/02/01 01:00:49;;;;;;;0.30;0.30;;;;;;;5.47;100.00;100352.88;5023264;28;20045;-58
2024/02/01 01:03:16;;;;;;;0.45;0.45;;;;;;;5.55;100.00;100359.97;5021651;28;20132;-58
2024/02/01 01:05:44;;;;;;;0.40;0.40;;;;;;;5.54;100.00;100352.97;5024623;28;20048;-58
2024/02/01 01:08:11;;;;;;;0.30;0.30;;;;;;;5.57;100.00;100353.44;5022585;28;20095;-58
2024/02/01 01:10:38;;;;;;;0.43;0.43;;;;;;;5.66;100.00;100348.84;5023639;28;20421;-58
2024/02/01 01:13:05;;;;;;;0.47;0.47;;;;;;;5.78;100.00;100343.91;5022072;28;20112;-58
2024/02/01 01:15:32;;;;;;;0.50;0.50;;;;;;;5.79;100.00;100348.19;5022929;28;20403;-58
2024/02/01 01:18:01;;;;;;;0.40;0.40;;;;;;;5.83;100.00;100347.66;5023258;28;20033;-58
2024/02/01 01:20:28;;;;;;;0.40;0.40;;;;;;;5.91;100.00;100332.59;5020769;28;20119;-58
2024/02/01 01:22:55;;;;;;;0.35;0.35;;;;;;;6.02;100.00;100334.84;5023193;28;20057;-58
2024/02/01 01:25:22;;;;;;;0.40;0.40;;;;;;;6.00;100.00;100336.88;5021105;28;20460;-58
2024/02/01 01:27:49;;;;;;;0.30;0.30;;;;;;;6.02;100.00;100337.50;5021563;28;20095;-58
2024/02/01 01:30:16;;;;;;;0.30;0.30;;;;;;;5.98;100.00;100341.53;5018440;28;20092;-58
2024/02/01 01:32:43;;;;;;;0.30;0.30;;;;;;;6.04;100.00;100346.09;5023270;28;20033;-58
2024/02/01 01:35:30;;;;;;;0.30;0.30;;;;;;;6.04;100.00;100346.97;5023432;28;20056;-58
2024/02/01 01:38:16;;;;;;;0.30;0.30;;;;;;;6.05;100.00;100334.47;5016585;28;20052;-58
2024/02/01 01:40:43;;;;;;;0.40;0.40;;;;;;;6.08;100.00;100333.28;5016289;28;20053;-58
2024/02/01 01:43:10;;;;;;;0.38;0.38;;;;;;;6.03;100.00;100342.63;5032502;28;20073;-58
2024/02/01 01:45:37;;;;;;;0.40;0.40;;;;;;;6.12;100.00;100347.88;5031419;28;20107;-58
2024/02/01 01:48:05;;;;;;;0.40;0.40;;;;;;;6.09;100.00;100341.09;5041140;28;20549;-58
2024/02/01 01:50:33;;;;;;;0.38;0.38;;;;;;;6.13;100.00;100349.50;5025201;28;20073;-58
2024/02/01 01:53:01;;;;;;;0.30;0.30;;;;;;;6.15;100.00;100345.66;5041327;28;20139;-58
2024/02/01 01:55:28;;;;;;;0.38;0.38;;;;;;;6.10;100.00;100341.91;5041680;28;20067;-58
2024/02/01 01:57:55;;;;;;;0.30;0.30;;;;;;;6.04;100.00;100327.47;5041210;28;20060;-58
2024/02/01 02:00:23;;;;;;;0.40;0.40;;;;;;;6.16;100.00;100322.50;5023800;28;20051;-58
2024/02/01 02:02:50;;;;;;;0.30;0.30;;;;;;;6.07;100.00;100321.81;5039533;28;20140;-58
2024/02/01 02:05:17;;;;;;;0.40;0.40;;;;;;;6.14;100.00;100303.22;5025911;28;20103;-58
2024/02/01 02:07:46;;;;;;;0.40;0.40;;;;;;;6.06;100.00;100314.81;5041886;28;20041;-58
2024/02/01 02:10:14;;;;;;;0.30;0.30;;;;;;;6.00;100.00;100304.94;5041255;28;20075;-58
2024/02/01 02:12:42;;;;;;;0.40;0.40;;;;;;;6.01;100.00;100298.59;5041731;28;20048;-58
2024/02/01 02:15:10;;;;;;;0.47;0.47;;;;;;;5.90;100.00;100286.56;5040040;28;20049;-58
2024/02/01 02:17:38;;;;;;;0.40;0.40;;;;;;;5.99;100.00;100274.00;5025117;28;20044;-58
2024/02/01 02:20:16;;;;;;;0.40;0.40;;;;;;;5.96;100.00;100280.50;5041396;28;20045;-59
2024/02/01 02:22:45;;;;;;;0.40;0.40;;;;;;;6.05;100.00;100286.56;5024939;28;20056;-59
2024/02/01 02:25:13;;;;;;;0.40;0.40;;;;;;;5.97;100.00;100292.00;5040727;28;20471;-58
2024/02/01 02:27:41;;;;;;;0.30;0.30;;;;;;;5.88;100.00;100285.09;5040775;28;20123;-58
2024/02/01 02:30:11;;;;;;;0.40;0.40;;;;;;;5.95;100.00;100283.38;5040528;28;20057;-58
2024/02/01 02:32:39;;;;;;;0.30;0.30;;;;;;;5.98;100.00;100283.00;5040945;28;20114;-58
2024/02/01 02:35:09;;;;;;;0.32;0.32;;;;;;;5.98;100.00;100283.81;5025130;28;20510;-58
2024/02/01 02:37:36;;;;;;;0.30;0.30;;;;;;;5.98;100.00;100293.63;5022111;28;20061;-58
2024/02/01 02:40:05;;;;;;;0.40;0.40;;;;;;;5.91;100.00;100288.19;5035400;28;20103;-59
2024/02/01 02:42:32;;;;;;;0.50;0.50;;;;;;;5.89;100.00;100292.91;5031427;28;20385;-58
2024/02/01 02:44:59;;;;;;;0.40;0.40;;;;;;;5.87;100.00;100289.59;5020860;28;20057;-58
2024/02/01 02:47:26;;;;;;;0.40;0.40;;;;;;;5.83;100.00;100290.97;4997017;28;20069;-58
2024/02/01 02:49:53;;;;;;;0.40;0.40;;;;;;;5.79;100.00;100282.53;5000057;28;20045;-58
2024/02/01 02:52:21;;;;;;;0.40;0.40;;;;;;;5.75;100.00;100275.13;4998372;28;20780;-58
2024/02/01 02:54:48;;;;;;;0.40;0.40;;;;;;;5.87;100.00;100288.78;4998772;28;20061;-58
2024/02/01 02:57:17;;;;;;;0.30;0.30;;;;;;;5.80;100.00;100284.19;4996180;28;20321;-58
2024/02/01 02:59:45;;;;;;;0.30;0.30;;;;;;;5.75;100.00;100275.94;4977495;28;20397;-58
2024/02/01 03:02:12;;;;;;;0.30;0.30;;;;;;;5.66;100.00;100271.72;5000017;28;20774;-58
2024/02/01 03:04:39;;;;;;;0.40;0.40;;;;;;;5.72;100.00;100268.34;5002735;28;20497;-58
2024/02/01 03:07:08;;;;;;;0.40;0.40;;;;;;;5.66;100.00;100281.53;4999595;28;20050;-58
2024/02/01 03:09:35;;;;;;;0.30;0.30;;;;;;;5.54;100.00;100283.81;5005052;28;20058;-58
2024/02/01 03:12:06;;;;;;;0.47;0.47;;;;;;;5.48;100.00;100269.44;5001281;28;20064;-59
2024/02/01 03:14:37;;;;;;;0.40;0.40;;;;;;;5.53;100.00;100274.22;5004988;28;20038;-58
2024/02/01 03:17:05;;;;;;;0.40;0.40;;;;;;;5.52;100.00;100269.91;5003898;28;20392;-58
2024/02/01 03:19:35;;;;;;;0.30;0.30;;;;;;;5.54;100.00;100286.47;5000391;28;20374;-58
2024/02/01 03:22:02;;;;;;;0.50;0.50;;;;;;;5.43;100.00;100276.31;5003582;28;20052;-58
2024/02/01 03:24:30;;;;;;;0.40;0.40;;;;;;;5.50;100.00;100266.59;5005529;28;20042;-58
2024/02/01 03:26:58;;;;;;;0.50;0.50;;;;;;;5.43;100.00;100273.66;5003020;28;20053;-58
2024/02/01 03:29:28;;;;;;;0.40;0.40;;;;;;;5.40;100.00;100273.00;5000874;28;20042;-58
2024/02/01 03:31:56;;;;;;;0.50;0.50;;;;;;;5.49;100.00;100287.06;5005185;28;20054;-59
2024/02/01 03:34:42;;;;;;;0.50;0.50;;;;;;;5.39;100.00;100281.16;5005750;28;20072;-58
2024/02/01 03:37:14;;;;;;;0.45;0.45;;;;;;;5.49;100.00;100284.41;5001535;28;20212;-58
2024/02/01 03:39:41;;;;;;;0.40;0.40;;;;;;;5.38;100.00;100277.69;4997927;28;20424;-58
2024/02/01 03:42:08;;;;;;;0.40;0.40;;;;;;;5.41;100.00;100284.47;5000872;28;20077;-59
2024/02/01 03:44:39;;;;;;;0.30;0.30;;;;;;;5.38;100.00;100274.22;5007585;28;20104;-58
2024/02/01 03:47:09;;;;;;;0.47;0.47;;;;;;;5.36;100.00;100278.88;5027008;28;20110;-59
2024/02/01 03:49:39;;;;;;;0.40;0.40;;;;;;;5.40;100.00;100288.97;5042252;28;20079;-58
2024/02/01 03:52:09;;;;;;;0.40;0.40;;;;;;;5.30;100.00;100272.47;5041226;28;20056;-58
2024/02/01 03:54:37;;;;;;;0.38;0.38;;;;;;;5.30;100.00;100283.09;5044918;28;20045;-58
2024/02/01 03:57:05;;;;;;;0.40;0.40;;;;;;;5.28;100.00;100285.09;5044486;28;20045;-58
2024/02/01 03:59:33;;;;;;;0.47;0.47;;;;;;;5.38;100.00;100293.63;5043210;28;20044;-59
2024/02/01 04:02:03;;;;;;;0.40;0.40;;;;;;;5.39;100.00;100297.13;5044483;28;20053;-59
2024/02/01 04:04:31;;;;;;;0.50;0.50;;;;;;;5.35;100.00;100286.03;5043963;28;20037;-58
2024/02/01 04:06:58;;;;;;;0.40;0.40;;;;;;;5.27;100.00;100283.47;5044538;28;20511;-58
2024/02/01 04:09:25;;;;;;;0.40;0.40;;;;;;;5.29;100.00;100281.47;5041667;28;20118;-58
2024/02/01 04:11:52;;;;;;;0.40;0.40;;;;;;;5.31;100.00;100278.59;5044284;28;20400;-58
2024/02/01 04:14:20;;;;;;;0.40;0.40;;;;;;;5.26;100.00;100281.78;5042934;28;20037;-58
2024/02/01 04:16:47;;;;;;;0.40;0.40;;;;;;;5.27;100.00;100278.16;5042840;28;20041;-58
2024/02/01 04:19:14;;;;;;;0.40;0.40;;;;;;;5.24;100.00;100289.16;5023112;28;20098;-58
2024/02/01 04:21:47;;;;;;;0.47;0.47;;;;;;;5.18;100.00;100285.38;5044303;28;20368;-59
2024/02/01 04:24:14;;;;;;;0.43;0.43;;;;;;;5.30;100.00;100293.72;5037434;28;20149;-58
2024/02/01 04:26:41;;;;;;;0.38;0.38;;;;;;;5.22;100.00;100291.16;5043550;28;20499;-58
2024/02/01 04:29:09;;;;;;;0.47;0.47;;;;;;;5.28;100.00;100285.09;5036816;28;20052;-58
2024/02/01 04:31:36;;;;;;;0.40;0.40;;;;;;;5.21;100.00;100288.69;5044042;28;20048;-58
2024/02/01 04:34:04;;;;;;;0.40;0.40;;;;;;;5.21;100.00;100294.81;5044170;28;20053;-59
2024/02/01 04:36:31;;;;;;;0.30;0.30;;;;;;;5.22;100.00;100304.44;5041770;28;20065;-58
2024/02/01 04:39:03;;;;;;;0.40;0.40;;;;;;;5.24;100.00;100288.31;5044116;28;20072;-58
2024/02/01 04:41:30;;;;;;;0.40;0.40;;;;;;;5.24;100.00;100293.63;5042211;28;20579;-58
2024/02/01 04:43:58;;;;;;;0.30;0.30;;;;;;;5.28;100.00;100284.28;5043028;28;20052;-58
2024/02/01 04:46:25;;;;;;;0.40;0.40;;;;;;;5.28;100.00;100301.06;5041455;28;20075;-58
2024/02/01 04:48:52;;;;;;;0.40;0.40;;;;;;;5.33;100.00;100301.34;5042492;28;20041;-58
2024/02/01 04:51:19;;;;;;;0.40;0.40;;;;;;;5.26;100.00;100297.75;5024849;28;20049;-58
2024/02/01 04:53:46;;;;;;;0.40;0.40;;;;;;;5.21;100.00;100294.00;5042595;28;20041;-58
2024/02/01 04:56:15;;;;;;;0.35;0.35;;;;;;;5.22;100.00;100300.94;5042674;28;20052;-58
2024/02/01 04:58:42;;;;;;;0.32;0.32;;;;;;;5.26;100.00;100308.38;5041371;28;20052;-58
2024/02/01 05:01:10;;;;;;;0.40;0.40;;;;;;;5.22;100.00;100299.13;5044661;28;20399;-58
2024/02/01 05:03:37;;;;;;;0.50;0.50;;;;;;;5.28;100.00;100305.56;5037792;28;20079;-59
2024/02/01 05:06:07;;;;;;;0.47;0.47;;;;;;;5.26;100.00;100303.06;5036628;28;20110;-58
2024/02/01 05:08:37;;;;;;;0.50;0.50;;;;;;;5.26;100.00;100299.59;5041315;28;20440;-58
2024/02/01 05:11:05;;;;;;;0.40;0.40;;;;;;;5.21;100.00;100299.31;5021066;28;20052;-58
2024/02/01 05:13:33;;;;;;;0.40;0.40;;;;;;;5.24;100.00;100294.47;5040808;28;20731;-58
2024/02/01 05:16:02;;;;;;;0.40;0.40;;;;;;;5.28;100.00;100295.75;5042675;28;20044;-58
2024/02/01 05:18:47;;;;;;;0.32;0.32;;;;;;;5.37;100.00;100307.94;5041596;28;21160;-58
2024/02/01 05:21:14;;;;;;;0.40;0.40;;;;;;;5.31;100.00;100303.34;5042725;28;20037;-59
2024/02/01 05:23:42;;;;;;;0.40;0.40;;;;;;;5.36;100.00;100302.81;5041043;28;20041;-59
2024/02/01 05:26:11;;;;;;;0.40;0.40;;;;;;;5.36;100.00;100292.97;5040928;28;20047;-59
2024/02/01 05:28:40;;;;;;;0.30;0.30;;;;;;;5.37;100.00;100310.59;5024661;28;20053;-59
2024/02/01 05:31:07;;;;;;;0.40;0.40;;;;;;;5.27;100.00;100310.06;5015959;28;20041;-59
2024/02/01 05:33:37;;;;;;;0.32;0.32;;;;;;;5.36;100.00;100300.97;5041723;28;20049;-59
2024/02/01 05:36:06;;;;;;;0.50;0.50;;;;;;;5.35;100.00;100307.31;5041302;28;20045;-58
2024/02/01 05:38:33;;;;;;;0.40;0.40;;;;;;;5.39;100.00;100316.56;5024136;28;20838;-58
2024/02/01 05:41:04;;;;;;;0.40;0.40;;;;;;;5.37;100.00;100310.59;5026837;28;20045;-59
2024/02/01 05:43:31;;;;;;;0.50;0.50;;;;;;;5.32;100.00;100312.16;5022542;28;20036;-58
2024/02/01 05:46:00;;;;;;;0.40;0.40;;;;;;;5.39;100.00;100308.59;5041667;28;20053;-58
2024/02/01 05:48:27;;;;;;;0.40;0.40;;;;;;;5.46;100.00;100305.19;5040723;28;20056;-58
2024/02/01 05:50:54;;;;;;;0.40;0.40;;;;;;;5.50;100.00;100304.66;5028717;28;20130;-58
2024/02/01 05:53:21;;;;;;;0.47;0.47;;;;;;;5.52;100.00;100312.47;5040526;28;20656;-58
2024/02/01 05:55:49;;;;;;;0.40;0.40;;;;;;;5.59;100.00;100322.19;5042036;28;20495;-59
2024/02/01 05:58:16;;;;;;;0.40;0.40;;;;;;;5.57;100.00;100323.38;5020979;28;20056;-59
2024/02/01 06:00:43;;;;;;;0.50;0.50;;;;;;;5.71;100.00;100325.19;5042676;28;20033;-59
2024/02/01 06:03:12;;;;;;;0.40;0.40;;;;;;;5.90;100.00;100325.66;5038533;28;20055;-58
2024/02/01 06:05:40;;;;;;;0.38;0.38;;;;;;;5.90;100.00;100330.97;5042103;28;20048;-58
2024/02/01 06:08:07;;;;;;;0.30;0.30;;;;;;;6.00;100.00;100331.53;5023296;28;20041;-58
2024/02/01 06:10:34;;;;;;;0.30;0.30;;;;;;;6.00;100.00;100331.53;5042086;28;20091;-58
2024/02/01 06:13:02;;;;;;;0.40;0.40;;;;;;;6.09;100.00;100338.41;5041786;28;20144;-59
2024/02/01 06:15:29;;;;;;;0.30;0.30;;;;;;;6.17;100.00;100334.81;5045255;28;20407;-58
2024/02/01 06:17:56;;;;;;;0.30;0.30;;;;;;;6.20;100.00;100347.75;5041536;28;20048;-58
2024/02/01 06:20:25;;;;;;;0.40;0.40;;;;;;;6.19;100.00;100346.09;5037787;28;20033;-59
2024/02/01 06:22:53;;;;;;;0.40;0.40;;;;;;;6.17;100.00;100340.16;5038321;28;20053;-58
2024/02/01 06:25:20;;;;;;;0.40;0.40;;;;;;;6.15;100.00;100356.28;5041465;28;20037;-59
2024/02/01 06:27:48;;;;;;;0.30;0.30;;;;;;;6.13;100.00;100352.16;5034943;28;20481;-59
2024/02/01 06:30:15;;;;;;;0.40;0.40;;;;;;;6.16;100.00;100359.78;5037372;28;20175;-59
2024/02/01 06:32:42;;;;;;;0.40;0.40;;;;;;;6.15;100.00;100361.63;5042964;28;20598;-58
2024/02/01 06:35:16;;;;;;;0.30;0.30;;;;;;;6.17;100.00;100358.78;5040465;28;20049;-58
2024/02/01 06:37:51;;;;;;;0.30;0.30;;;;;;;6.12;100.00;100359.34;5039466;28;20501;-58
2024/02/01 06:40:37;;;;;;;0.40;0.40;;;;;;;6.13;100.00;100354.84;5042014;28;20551;-58
2024/02/01 06:43:11;;;;;;;0.30;0.30;;;;;;;6.13;100.00;100355.66;5037233;28;20069;-59
2024/02/01 06:45:45;;;;;;;0.30;0.30;;;;;;;6.13;100.00;100370.81;5036267;28;20061;-59
2024/02/01 06:48:12;;;;;;;0.38;0.38;;;;;;;6.18;100.00;100366.56;5041711;28;20061;-58
2024/02/01 06:51:07;;;;;;;0.40;0.40;;;;;;;6.15;100.00;100368.78;5025601;28;20063;-60
2024/02/01 06:53:38;;;;;;;0.40;0.40;;;;;;;6.11;100.00;100370.97;5038852;28;20396;-59
2024/02/01 06:56:13;;;;;;;;;;;;;;;6.22;100.00;100375.84;5045906;28;20044;-58
2024/02/01 06:58:47;;;;;;;0.30;0.30;;;;;;;6.13;100.00;100384.94;5035124;28;19931;-59
2024/02/01 07:01:33;;;;;;;0.38;0.38;;;;;;;6.21;100.00;100381.34;5040905;28;20231;-58
2024/02/01 07:04:15;;;;;;;0.32;0.32;;;;;;;6.15;100.00;100384.75;5040360;28;20045;-58
2024/02/01 07:07:04;;;;;;;0.30;0.30;;;;;;;6.22;100.00;100391.81;5039207;28;20090;-59
2024/02/01 07:09:37;;;;;;;0.30;0.30;;;;;;;6.29;100.00;100396.38;5041360;28;20128;-59
2024/02/01 07:12:15;;;;;;;0.40;0.40;;;;;;;6.31;100.00;100402.34;5040470;28;20041;-59
2024/02/01 07:14:48;;;;;;;0.30;0.30;;;;;;;6.28;100.00;100408.06;5021547;28;20041;-60
2024/02/01 07:17:28;;;;;;;0.32;0.32;;;;;;;6.28;100.00;100413.38;5040148;28;20037;-59
2024/02/01 07:19:56;;;;;;;0.40;0.40;;;;;;;6.25;100.00;100426.06;5038753;28;20053;-58
2024/02/01 07:22:39;;;;;;;0.30;0.30;;;;;;;6.30;100.00;100422.03;5010641;28;20057;-58
2024/02/01 07:25:23;;;;;;;0.30;0.30;;;;;;;6.34;100.00;100439.25;5035409;28;20053;-60
2024/02/01 07:58:16;;;;;;;0.30;0.30;;;;;;;6.41;100.00;100530.72;5042490;28;20499;-58
2024/02/01 08:00:48;;;;;;;0.30;0.30;;;;;;;6.36;100.00;100528.59;5027617;28;20720;-58
2024/02/01 08:03:42;;;;;;;0.30;0.30;;;;;;;6.36;100.00;100527.78;5044665;28;20339;-59
2024/02/01 08:08:55;;;;;;;0.30;0.30;;;;;;;6.46;100.00;100533.66;5040892;28;20076;-60
2024/02/01 08:11:25;;;;;;;0.30;0.30;;;;;;;6.63;100.00;100537.78;5044018;28;20036;-60
2024/02/01 08:13:54;;;;;;;0.40;0.40;;;;;;;6.53;100.00;100529.25;5039429;28;20045;-59
2024/02/01 08:16:42;;;;;;;0.30;0.30;;;;;;;6.57;100.00;100530.53;5043928;28;20455;-58
2024/02/01 08:19:09;;;;;;;0.40;0.40;;;;;;;6.57;100.00;100530.53;5043997;28;20041;-59
2024/02/01 08:21:37;;;;;;;0.30;0.30;;;;;;;6.63;100.00;100531.63;5041992;28;20064;-58
2024/02/01 08:24:06;;;;;;;0.40;0.40;;;;;;;6.69;100.00;100541.56;5044695;28;20475;-59
2024/02/01 08:26:37;;;;;;;0.30;0.30;;;;;;;6.73;100.00;100539.34;5041052;28;20041;-59
2024/02/01 08:29:09;;;;;;;0.30;0.30;;;;;;;6.73;100.00;100542.84;5007448;28;20037;-59
2024/02/01 08:31:37;;;;;;;0.35;0.35;;;;;;;6.77;100.00;100545.97;5043626;28;20130;-59
2024/02/01 08:34:05;;;;;;;0.30;0.30;;;;;;;6.82;100.00;100546.25;5026461;28;20051;-60
2024/02/01 08:36:32;;;;;;;0.20;0.20;;;;;;;6.82;100.00;100556.91;5037811;28;20460;-57
2024/02/01 08:39:00;;;;;;;0.35;0.35;;;;;;;6.83;100.00;100558.53;5044547;28;20052;-57
2024/02/01 08:41:27;;;;;;;0.20;0.20;;;;;;;6.79;100.00;100560.75;5044337;28;20060;-58
2024/02/01 08:43:55;;;;;;;0.40;0.40;;;;;;;6.78;100.00;100566.28;5043554;28;20045;-58
2024/02/01 08:46:24;;;;;;;0.30;0.30;;;;;;;6.89;100.00;100568.47;5005343;28;20052;-59
2024/02/01 08:48:51;;;;;;;0.20;0.20;;;;;;;6.94;100.00;100566.09;5003450;28;20042;-60
2024/02/01 08:51:18;;;;;;;0.30;0.30;;;;;;;6.97;100.00;100563.03;5000593;28;20069;-58
2024/02/01 08:53:45;;;;;;;0.40;0.40;;;;;;;6.97;100.00;100563.03;5000619;28;20046;-60
2024/02/01 08:56:12;;;;;;;0.20;0.20;;;;;;;7.15;100.00;100575.16;5002871;28;20127;-58
2024/02/01 08:58:41;;;;;;;0.35;0.35;;;;;;;7.06;100.00;100569.94;4999921;28;20049;-58
2024/02/01 09:01:22;;;;;;;0.30;0.30;;;;;;;7.09;100.00;100566.88;5003427;28;20104;-57
2024/02/01 09:03:51;;;;;;;0.40;0.40;;;;;;;7.20;100.00;100568.22;5001258;28;20038;-59
2024/02/01 09:06:18;;;;;;;0.40;0.40;;;;;;;7.36;100.00;100583.16;5003648;28;20042;-59
2024/02/01 09:08:45;;;;;;;0.38;0.38;;;;;;;7.33;100.00;100586.22;5004247;28;20049;-60
2024/02/01 09:11:14;;;;;;;0.30;0.30;;;;;;;7.39;100.00;100587.28;5003305;28;20050;-57
2024/02/01 09:13:43;;;;;;;0.30;0.30;;;;;;;7.32;100.00;100592.56;5002340;28;21409;-61
2024/02/01 09:16:11;;;;;;;0.30;0.30;;;;;;;7.40;100.00;100600.47;4979568;28;20046;-60
2024/02/01 09:18:38;;;;;;;0.30;0.30;;;;;;;7.44;100.00;100606.22;5003054;28;20467;-59
2024/02/01 09:21:07;;;;;;;0.30;0.30;;;;;;;7.37;100.00;100598.19;5001908;28;20037;-59
2024/02/01 09:23:34;;;;;;;0.30;0.30;;;;;;;7.46;100.00;100598.88;5003632;28;20049;-58
2024/02/01 09:26:01;;;;;;;0.38;0.38;;;;;;;7.50;100.00;100592.97;5002940;28;20057;-58
2024/02/01 09:28:29;;;;;;;0.40;0.40;;;;;;;7.67;100.00;100596.25;5001790;28;20129;-58
2024/02/01 09:30:59;;;;;;;0.38;0.38;;;;;;;7.72;100.00;100609.00;5004211;28;20515;-58
2024/02/01 09:33:27;;;;;;;0.50;0.50;;;;;;;8.46;100.00;100608.63;5001992;28;20173;-58
2024/02/01 09:35:54;;;;;;;0.40;0.40;;;;;;;9.11;100.00;100619.94;5002647;28;20554;-58
2024/02/01 09:38:25;;;;;;;0.30;0.30;;;;;;;8.71;100.00;100610.84;4996203;28;20128;-59
2024/02/01 09:41:15;;;;;;;0.30;0.30;;;;;;;8.12;100.00;100625.41;5000634;28;20052;-59
2024/02/01 09:43:52;;;;;;;0.32;0.32;;;;;;;7.72;100.00;100625.03;4995790;28;22231;-59
2024/02/01 09:46:19;;;;;;;0.30;0.30;;;;;;;7.69;100.00;100614.75;5033462;28;20055;-60
2024/02/01 09:48:47;;;;;;;0.30;0.30;;;;;;;7.65;100.00;100614.28;5038891;28;20038;-58
2024/02/01 09:51:18;;;;;;;0.38;0.38;;;;;;;7.66;100.00;100628.44;5040472;28;20041;-59
2024/02/01 09:53:48;;;;;;;0.30;0.30;;;;;;;7.73;100.00;100616.00;5041434;28;20088;-58
2024/02/01 09:56:15;;;;;;;0.40;0.40;;;;;;;8.21;100.00;100630.44;5042826;28;20072;-58
2024/02/01 09:58:43;;;;;;;0.40;0.40;;;;;;;9.12;100.00;100626.09;5041759;28;20572;-58
2024/02/01 10:01:10;;;;;;;0.32;0.32;;;;;;;8.34;100.00;100640.38;5041270;28;20048;-58
2024/02/01 10:03:41;;;;;;;0.30;0.30;;;;;;;8.66;100.00;100643.50;5039554;28;20053;-59
2024/02/01 10:06:09;;;;;;;0.30;0.30;;;;;;;8.58;100.00;100651.69;5043763;28;20075;-59
2024/02/01 10:08:36;;;;;;;0.30;0.30;;;;;;;9.56;100.00;100662.28;5035740;28;20037;-59
2024/02/01 10:11:05;;;;;;;0.20;0.20;;;;;;;9.01;100.00;100655.06;5022342;28;20045;-59
2024/02/01 10:13:35;;;;;;;0.30;0.30;;;;;;;8.51;100.00;100665.03;5044894;28;20044;-60
2024/02/01 10:16:02;;;;;;;0.30;0.30;;;;;;;8.18;100.00;100667.34;5004584;28;20049;-59
2024/02/01 10:18:29;;;;;;;0.20;0.20;;;;;;;7.86;100.00;100677.53;5043541;28;20067;-59
2024/02/01 10:20:58;;;;;;;0.20;0.20;;;;;;;7.81;100.00;100676.44;5015603;28;20051;-59
2024/02/01 10:23:25;;;;;;;0.20;0.20;;;;;;;7.78;100.00;100674.97;5042029;28;20494;-59
2024/02/01 10:26:18;;;;;;;0.30;0.30;;;;;;;7.37;100.00;100672.84;5041368;28;20060;-59
2024/02/01 10:28:45;;;;;;;0.30;0.30;;;;;;;7.30;100.00;100680.78;5040351;28;20151;-59
2024/02/01 10:31:13;;;;;;;0.30;0.30;;;;;;;7.32;100.00;100673.41;5043561;28;20458;-60
2024/02/01 10:33:41;;;;;;;0.30;0.30;;;;;;;7.21;100.00;100670.38;5035063;28;20045;-60
2024/02/01 10:36:09;;;;;;;0.30;0.30;;;;;;;7.08;100.00;100679.84;5021926;28;20304;-60
2024/02/01 10:38:42;;;;;;;0.30;0.30;;;;;;;7.28;100.00;100676.63;5041092;28;20037;-58
2024/02/01 10:41:12;;;;;;;0.32;0.32;;;;;;;6.92;100.00;100672.06;5021278;28;20048;-57
2024/02/01 10:43:44;;;;;;;0.40;0.40;;;;;;;6.88;100.00;100681.41;5041030;28;20060;-57
2024/02/01 10:46:15;;;;;;;0.40;0.40;;;;;;;6.72;100.00;100686.94;5022548;28;20080;-57
2024/02/01 10:48:46;;;;;;;0.30;0.30;;;;;;;6.87;100.00;100680.59;5039544;28;20037;-59
2024/02/01 10:51:17;;;;;;;0.40;0.40;;;;;;;6.87;100.00;100680.59;5041159;28;20399;-58
2024/02/01 10:53:46;;;;;;;0.47;0.47;;;;;;;7.61;100.00;100677.03;5021617;28;21280;-59
2024/02/01 10:56:16;;;;;;;0.50;0.50;;;;;;;8.10;100.00;100678.19;5007076;28;20059;-59
2024/02/01 10:58:46;;;;;;;0.40;0.40;;;;;;;8.94;98.02;100682.78;5038305;28;20495;-59
2024/02/01 11:01:15;;;;;;;0.43;0.43;;;;;;;8.83;93.24;100676.94;5040731;28;20060;-60
2024/02/01 11:03:47;;;;;;;0.40;0.40;;;;;;;9.47;89.74;100683.88;5042541;28;20045;-61
2024/02/01 11:06:16;;;;;;;0.25;0.25;;;;;;;9.11;89.91;100684.13;5041130;28;20048;-59
2024/02/01 11:08:46;;;;;;;0.30;0.30;;;;;;;8.31;95.45;100685.34;5024432;28;20113;-61
2024/02/01 11:11:22;;;;;;;0.30;0.30;;;;;;;8.36;91.74;100686.44;5020190;28;20304;-58
2024/02/01 11:14:09;;;;;;;0.40;0.40;;;;;;;8.87;89.07;100688.09;5036080;28;20111;-59
2024/02/01 11:16:37;;;;;;;0.30;0.30;;;;;;;8.25;91.91;100689.63;5037261;28;20549;-60
2024/02/01 11:19:13;;;;;;;0.30;0.30;;;;;;;9.17;87.25;100691.34;5039072;28;20052;-59
2024/02/01 11:22:01;;;;;;;0.30;0.30;;;;;;;8.74;88.19;100698.69;5041345;28;20060;-59
2024/02/01 11:25:04;;;;;;;0.30;0.30;;;;;;;8.55;90.90;100705.53;5041891;28;20044;-60
2024/02/01 11:27:36;;;;;;;0.40;0.40;;;;;;;8.75;91.01;100708.38;5041375;28;20041;-60
2024/02/01 11:30:19;;;;;;;0.30;0.30;;;;;;;8.63;88.93;100700.84;5044464;28;20037;-60
2024/02/01 11:32:47;;;;;;;0.20;0.20;;;;;;;8.51;87.70;100699.75;5044422;28;21154;-58
2024/02/01 11:35:20;;;;;;;0.40;0.40;;;;;;;8.53;89.19;100712.91;5047659;28;20100;-61
2024/02/01 11:37:54;;;;;;;0.30;0.30;;;;;;;8.92;88.12;100717.75;5042942;28;21519;-60
2024/02/01 11:40:21;;;;;;;0.20;0.20;;;;;;;8.95;90.32;100711.19;5041776;28;20064;-59
2024/02/01 11:42:48;;;;;;;0.25;0.25;;;;;;;8.34;89.01;100712.53;5046374;28;20043;-59
2024/02/01 11:45:17;;;;;;;0.30;0.30;;;;;;;8.43;86.86;100708.72;5044727;28;20148;-61
2024/02/01 11:47:45;;;;;;;0.30;0.30;;;;;;;8.64;86.23;100699.03;5024989;28;20416;-60
2024/02/01 11:50:12;;;;;;;0.22;0.22;;;;;;;8.94;85.86;100705.00;5042561;28;20049;-59
2024/02/01 11:52:44;;;;;;;0.40;0.40;;;;;;;8.47;87.29;100717.19;5041128;28;20045;-62
2024/02/01 11:55:14;;;;;;;0.30;0.30;;;;;;;8.39;90.76;100720.81;5027841;28;20056;-60
2024/02/01 11:57:47;;;;;;;0.30;0.30;;;;;;;8.45;88.14;100715.72;5026206;28;20041;-59
2024/02/01 12:00:18;;;;;;;0.30;0.30;;;;;;;8.29;88.53;100712.28;5027045;28;20045;-59
2024/02/01 12:02:46;;;;;;;0.32;0.32;;;;;;;8.60;87.12;100705.78;5026164;28;20495;-58
2024/02/01 12:05:17;;;;;;;0.20;0.20;;;;;;;8.92;84.81;100722.28;5044760;28;20095;-63
2024/02/01 12:07:45;;;;;;;0.25;0.25;;;;;;;8.70;85.94;100719.63;5042547;28;20503;-59
2024/02/01 12:10:12;;;;;;;0.30;0.30;;;;;;;8.53;84.17;100712.91;5043409;28;20198;-59
2024/02/01 12:12:42;;;;;;;0.30;0.30;;;;;;;8.46;82.82;100706.69;5043879;28;20049;-59